Terminal Aerodrome Forecast
Issued by NWS Central Illinois

Home | Current Version | Previous Version | Text Only | Print | Product List | Glossary On
Versions: 1 2 3 4 5 6 7 8 9 10 11 12 13 14 15 16 17 18 19 20 21 22 23 24 25 26 27 28 29 30 31 32 33 34 35 36 37 38 39
115
FTUS43 KILX 171725
TAFPIA
TAF
KPIA 171725Z 1718/1818 27010KT P6SM OVC006
     FM180000 28007KT 5SM BR BKN008
      TEMPO 1811/1815 1 1/2SM BR
     FM181600 22005KT P6SM SCT010=

USA.gov is the U.S. government's official web portal to all federal, state and local government web resources and services.